sensor_id;sensor_type;location;lat;lon;timestamp;temperature;humidity
18266;DHT22;9259;48.194;16.322;2023-05-07T00:00:26;13.70;99.90
18266;DHT22;9259;48.194;16.322;2023-05-07T00:02:53;13.70;99.90
18266;DHT22;9259;48.194;16.322;2023-05-07T00:05:21;13.60;99.90
18266;DHT22;9259;48.194;16.322;2023-05-07T00:07:48;13.60;99.90
18266;DHT22;9259;48.194;16.322;2023-05-07T00:10:16;13.60;99.90
18266;DHT22;9259;48.194;16.322;2023-05-07T00:12:45;13.60;99.90
18266;DHT22;9259;48.194;16.322;2023-05-07T00:15:12;13.60;99.90
18266;DHT22;9259;48.194;16.322;2023-05-07T00:17:39;13.60;99.90
18266;DHT22;9259;48.194;16.322;2023-05-07T00:20:07;13.60;99.90
18266;DHT22;9259;48.194;16.322;2023-05-07T00:22:35;13.60;99.90
18266;DHT22;9259;48.194;16.322;2023-05-07T00:25:04;13.60;99.90
18266;DHT22;9259;48.194;16.322;2023-05-07T00:27:32;13.70;99.90
18266;DHT22;9259;48.194;16.322;2023-05-07T00:30:01;13.60;99.90
18266;DHT22;9259;48.194;16.322;2023-05-07T00:32:28;13.70;99.90
18266;DHT22;9259;48.194;16.322;2023-05-07T00:34:55;13.60;99.90
18266;DHT22;9259;48.194;16.322;2023-05-07T00:37:23;13.60;99.90
18266;DHT22;9259;48.194;16.322;2023-05-07T00:39:50;13.70;99.90
18266;DHT22;9259;48.194;16.322;2023-05-07T00:42:18;13.70;99.90
18266;DHT22;9259;48.194;16.322;2023-05-07T00:44:45;13.70;99.90
18266;DHT22;9259;48.194;16.322;2023-05-07T00:47:14;13.70;99.90
18266;DHT22;9259;48.194;16.322;2023-05-07T00:49:43;13.70;99.90
18266;DHT22;9259;48.194;16.322;2023-05-07T00:52:13;13.60;99.90
18266;DHT22;9259;48.194;16.322;2023-05-07T00:54:41;13.60;99.90
18266;DHT22;9259;48.194;16.322;2023-05-07T00:57:10;13.50;99.90
18266;DHT22;9259;48.194;16.322;2023-05-07T00:59:38;13.30;99.90
18266;DHT22;9259;48.194;16.322;2023-05-07T01:02:06;13.20;99.90
18266;DHT22;9259;48.194;16.322;2023-05-07T01:04:35;13.20;99.90
18266;DHT22;9259;48.194;16.322;2023-05-07T01:07:03;13.10;99.90
18266;DHT22;9259;48.194;16.322;2023-05-07T01:09:31;13.10;99.90
18266;DHT22;9259;48.194;16.322;2023-05-07T01:12:01;13.10;99.90
18266;DHT22;9259;48.194;16.322;2023-05-07T01:14:28;13.10;99.90
18266;DHT22;9259;48.194;16.322;2023-05-07T01:16:57;13.00;99.90
18266;DHT22;9259;48.194;16.322;2023-05-07T01:19:25;12.90;99.90
18266;DHT22;9259;48.194;16.322;2023-05-07T01:22:01;12.90;99.90
18266;DHT22;9259;48.194;16.322;2023-05-07T01:24:31;12.90;99.90
18266;DHT22;9259;48.194;16.322;2023-05-07T01:26:59;12.90;99.90
18266;DHT22;9259;48.194;16.322;2023-05-07T01:29:27;12.90;99.90
18266;DHT22;9259;48.194;16.322;2023-05-07T01:31:57;12.90;99.90
18266;DHT22;9259;48.194;16.322;2023-05-07T01:34:28;12.90;99.90
18266;DHT22;9259;48.194;16.322;2023-05-07T01:36:58;12.90;99.90
18266;DHT22;9259;48.194;16.322;2023-05-07T01:39:27;12.90;99.90
18266;DHT22;9259;48.194;16.322;2023-05-07T01:41:57;13.00;99.90
18266;DHT22;9259;48.194;16.322;2023-05-07T01:44:26;13.00;99.90
18266;DHT22;9259;48.194;16.322;2023-05-07T01:46:54;13.00;99.90
18266;DHT22;9259;48.194;16.322;2023-05-07T01:49:22;13.00;99.90
18266;DHT22;9259;48.194;16.322;2023-05-07T01:51:49;13.00;99.90
18266;DHT22;9259;48.194;16.322;2023-05-07T01:54:17;13.00;99.90
18266;DHT22;9259;48.194;16.322;2023-05-07T01:56:44;12.90;99.90
18266;DHT22;9259;48.194;16.322;2023-05-07T01:59:15;13.00;99.90
18266;DHT22;9259;48.194;16.322;2023-05-07T02:01:42;12.90;99.90
18266;DHT22;9259;48.194;16.322;2023-05-07T02:04:10;12.90;99.90
18266;DHT22;9259;48.194;16.322;2023-05-07T02:06:37;12.90;99.90
18266;DHT22;9259;48.194;16.322;2023-05-07T02:09:05;12.90;99.90
18266;DHT22;9259;48.194;16.322;2023-05-07T02:11:32;12.90;99.90
18266;DHT22;9259;48.194;16.322;2023-05-07T02:14:00;12.90;99.90
18266;DHT22;9259;48.194;16.322;2023-05-07T02:16:28;12.90;99.90
18266;DHT22;9259;48.194;16.322;2023-05-07T02:18:56;12.90;99.90
18266;DHT22;9259;48.194;16.322;2023-05-07T02:21:24;12.90;99.90
18266;DHT22;9259;48.194;16.322;2023-05-07T02:23:51;12.80;99.90
18266;DHT22;9259;48.194;16.322;2023-05-07T02:26:19;12.80;99.90
18266;DHT22;9259;48.194;16.322;2023-05-07T02:28:47;12.80;99.90
18266;DHT22;9259;48.194;16.322;2023-05-07T02:31:14;12.80;99.90
18266;DHT22;9259;48.194;16.322;2023-05-07T02:33:43;12.80;99.90
18266;DHT22;9259;48.194;16.322;2023-05-07T02:36:11;12.70;99.90
18266;DHT22;9259;48.194;16.322;2023-05-07T02:38:39;12.70;99.90
18266;DHT22;9259;48.194;16.322;2023-05-07T02:41:06;12.60;99.90
18266;DHT22;9259;48.194;16.322;2023-05-07T02:43:34;12.60;99.90
18266;DHT22;9259;48.194;16.322;2023-05-07T02:46:02;12.60;99.90
18266;DHT22;9259;48.194;16.322;2023-05-07T02:48:30;12.60;99.90
18266;DHT22;9259;48.194;16.322;2023-05-07T02:50:59;12.60;99.90
18266;DHT22;9259;48.194;16.322;2023-05-07T02:53:27;12.50;99.90
18266;DHT22;9259;48.194;16.322;2023-05-07T02:55:56;12.50;99.90
18266;DHT22;9259;48.194;16.322;2023-05-07T02:58:24;12.50;99.90
18266;DHT22;9259;48.194;16.322;2023-05-07T03:00:52;12.50;99.90
18266;DHT22;9259;48.194;16.322;2023-05-07T03:03:20;12.50;99.90
18266;DHT22;9259;48.194;16.322;2023-05-07T03:05:48;12.50;99.90
18266;DHT22;9259;48.194;16.322;2023-05-07T03:08:17;12.40;99.90
18266;DHT22;9259;48.194;16.322;2023-05-07T03:10:44;12.40;99.90
18266;DHT22;9259;48.194;16.322;2023-05-07T03:13:12;12.40;99.90
18266;DHT22;9259;48.194;16.322;2023-05-07T03:15:39;12.40;99.90
18266;DHT22;9259;48.194;16.322;2023-05-07T03:18:07;12.30;99.90
18266;DHT22;9259;48.194;16.322;2023-05-07T03:20:34;12.30;99.90
18266;DHT22;9259;48.194;16.322;2023-05-07T03:23:02;12.40;99.90
18266;DHT22;9259;48.194;16.322;2023-05-07T03:25:32;12.40;99.90
18266;DHT22;9259;48.194;16.322;2023-05-07T03:27:59;12.30;99.90
18266;DHT22;9259;48.194;16.322;2023-05-07T03:30:27;12.30;99.90
18266;DHT22;9259;48.194;16.322;2023-05-07T03:32:54;12.30;99.90
18266;DHT22;9259;48.194;16.322;2023-05-07T03:35:22;12.20;99.90
18266;DHT22;9259;48.194;16.322;2023-05-07T03:37:49;12.30;99.90
18266;DHT22;9259;48.194;16.322;2023-05-07T03:40:16;12.30;99.90
18266;DHT22;9259;48.194;16.322;2023-05-07T03:42:45;12.30;99.90
18266;DHT22;9259;48.194;16.322;2023-05-07T03:45:13;12.30;99.90
18266;DHT22;9259;48.194;16.322;2023-05-07T03:47:40;12.40;99.90
18266;DHT22;9259;48.194;16.322;2023-05-07T03:50:08;12.30;99.90
18266;DHT22;9259;48.194;16.322;2023-05-07T03:52:36;12.40;99.90
18266;DHT22;9259;48.194;16.322;2023-05-07T03:55:04;12.40;99.90
18266;DHT22;9259;48.194;16.322;2023-05-07T03:57:32;12.40;99.90
18266;DHT22;9259;48.194;16.322;2023-05-07T04:00:01;12.40;99.90
18266;DHT22;9259;48.194;16.322;2023-05-07T04:02:29;12.50;99.90
18266;DHT22;9259;48.194;16.322;2023-05-07T04:04:57;12.50;99.90
18266;DHT22;9259;48.194;16.322;2023-05-07T04:07:24;12.50;99.90
18266;DHT22;9259;48.194;16.322;2023-05-07T04:09:52;12.50;99.90
18266;DHT22;9259;48.194;16.322;2023-05-07T04:12:19;12.50;99.90
18266;DHT22;9259;48.194;16.322;2023-05-07T04:14:47;12.60;99.90
18266;DHT22;9259;48.194;16.322;2023-05-07T04:17:15;12.60;99.90
18266;DHT22;9259;48.194;16.322;2023-05-07T04:19:43;12.70;99.90
18266;DHT22;9259;48.194;16.322;2023-05-07T04:22:11;12.70;99.90
18266;DHT22;9259;48.194;16.322;2023-05-07T04:24:38;12.80;99.90
18266;DHT22;9259;48.194;16.322;2023-05-07T04:27:06;12.80;99.90
18266;DHT22;9259;48.194;16.322;2023-05-07T04:29:33;12.90;99.90
18266;DHT22;9259;48.194;16.322;2023-05-07T04:32:01;12.80;99.90
18266;DHT22;9259;48.194;16.322;2023-05-07T04:34:30;12.80;99.90
18266;DHT22;9259;48.194;16.322;2023-05-07T04:36:59;12.80;99.90
18266;DHT22;9259;48.194;16.322;2023-05-07T04:39:26;12.90;99.90
18266;DHT22;9259;48.194;16.322;2023-05-07T04:41:54;13.00;99.90
18266;DHT22;9259;48.194;16.322;2023-05-07T04:44:21;13.10;99.90
18266;DHT22;9259;48.194;16.322;2023-05-07T04:46:49;13.20;99.90
18266;DHT22;9259;48.194;16.322;2023-05-07T04:49:16;13.20;99.90
18266;DHT22;9259;48.194;16.322;2023-05-07T04:51:45;13.30;99.90
18266;DHT22;9259;48.194;16.322;2023-05-07T04:54:12;13.40;99.90
18266;DHT22;9259;48.194;16.322;2023-05-07T04:56:40;13.40;99.90
18266;DHT22;9259;48.194;16.322;2023-05-07T04:59:07;13.50;99.90
18266;DHT22;9259;48.194;16.322;2023-05-07T05:01:35;13.80;99.90
18266;DHT22;9259;48.194;16.322;2023-05-07T05:04:02;14.00;99.90
18266;DHT22;9259;48.194;16.322;2023-05-07T05:06:29;14.20;99.90
18266;DHT22;9259;48.194;16.322;2023-05-07T05:08:58;14.40;99.90
18266;DHT22;9259;48.194;16.322;2023-05-07T05:11:26;14.40;99.90
18266;DHT22;9259;48.194;16.322;2023-05-07T05:13:53;14.60;99.90
18266;DHT22;9259;48.194;16.322;2023-05-07T05:16:21;14.50;99.90
18266;DHT22;9259;48.194;16.322;2023-05-07T05:18:48;14.70;99.90
18266;DHT22;9259;48.194;16.322;2023-05-07T05:21:17;14.60;99.90
18266;DHT22;9259;48.194;16.322;2023-05-07T05:23:45;14.70;99.90
18266;DHT22;9259;48.194;16.322;2023-05-07T05:26:13;14.80;99.90
18266;DHT22;9259;48.194;16.322;2023-05-07T05:28:41;15.00;99.90
18266;DHT22;9259;48.194;16.322;2023-05-07T05:31:08;15.10;99.90
18266;DHT22;9259;48.194;16.322;2023-05-07T05:33:36;15.30;99.90
18266;DHT22;9259;48.194;16.322;2023-05-07T05:36:04;15.30;99.90
18266;DHT22;9259;48.194;16.322;2023-05-07T05:38:31;15.50;99.90
18266;DHT22;9259;48.194;16.322;2023-05-07T05:40:58;15.30;99.90
18266;DHT22;9259;48.194;16.322;2023-05-07T05:43:27;15.20;99.90
18266;DHT22;9259;48.194;16.322;2023-05-07T05:45:55;15.00;99.90
18266;DHT22;9259;48.194;16.322;2023-05-07T05:48:23;15.10;99.90
18266;DHT22;9259;48.194;16.322;2023-05-07T05:50:50;15.20;99.90
18266;DHT22;9259;48.194;16.322;2023-05-07T05:53:17;15.50;99.90
18266;DHT22;9259;48.194;16.322;2023-05-07T05:55:45;15.50;99.90
18266;DHT22;9259;48.194;16.322;2023-05-07T05:58:12;15.60;99.90
18266;DHT22;9259;48.194;16.322;2023-05-07T06:00:44;15.80;99.90
18266;DHT22;9259;48.194;16.322;2023-05-07T06:03:11;15.60;99.90
18266;DHT22;9259;48.194;16.322;2023-05-07T06:05:39;15.60;99.90
18266;DHT22;9259;48.194;16.322;2023-05-07T06:08:06;15.90;99.90
18266;DHT22;9259;48.194;16.322;2023-05-07T06:10:34;16.20;99.90
18266;DHT22;9259;48.194;16.322;2023-05-07T06:13:02;16.00;99.90
18266;DHT22;9259;48.194;16.322;2023-05-07T06:15:30;15.80;99.90
18266;DHT22;9259;48.194;16.322;2023-05-07T06:17:59;15.90;99.90
18266;DHT22;9259;48.194;16.322;2023-05-07T06:20:26;16.30;99.90
18266;DHT22;9259;48.194;16.322;2023-05-07T06:22:54;16.60;99.90
18266;DHT22;9259;48.194;16.322;2023-05-07T06:25:21;16.70;99.90
18266;DHT22;9259;48.194;16.322;2023-05-07T06:27:48;16.60;99.90
18266;DHT22;9259;48.194;16.322;2023-05-07T06:30:16;16.50;99.90
18266;DHT22;9259;48.194;16.322;2023-05-07T06:32:43;16.60;99.90
18266;DHT22;9259;48.194;16.322;2023-05-07T06:35:12;16.50;99.90
18266;DHT22;9259;48.194;16.322;2023-05-07T06:37:41;16.50;99.90
18266;DHT22;9259;48.194;16.322;2023-05-07T06:40:09;16.60;99.90
18266;DHT22;9259;48.194;16.322;2023-05-07T06:42:37;16.60;99.90
18266;DHT22;9259;48.194;16.322;2023-05-07T06:45:05;16.70;99.90
18266;DHT22;9259;48.194;16.322;2023-05-07T06:47:33;17.00;99.90
18266;DHT22;9259;48.194;16.322;2023-05-07T06:50:00;17.00;99.90
18266;DHT22;9259;48.194;16.322;2023-05-07T06:52:29;16.90;99.90
18266;DHT22;9259;48.194;16.322;2023-05-07T06:54:57;16.70;99.90
18266;DHT22;9259;48.194;16.322;2023-05-07T06:57:24;16.50;99.90
18266;DHT22;9259;48.194;16.322;2023-05-07T06:59:52;16.50;99.90
18266;DHT22;9259;48.194;16.322;2023-05-07T07:02:19;16.60;99.90
18266;DHT22;9259;48.194;16.322;2023-05-07T07:04:46;16.70;99.90
18266;DHT22;9259;48.194;16.322;2023-05-07T07:07:14;16.70;99.90
18266;DHT22;9259;48.194;16.322;2023-05-07T07:09:42;16.60;99.90
18266;DHT22;9259;48.194;16.322;2023-05-07T07:12:10;16.60;99.90
18266;DHT22;9259;48.194;16.322;2023-05-07T07:14:37;16.80;99.90
18266;DHT22;9259;48.194;16.322;2023-05-07T07:17:05;17.20;99.90
18266;DHT22;9259;48.194;16.322;2023-05-07T07:19:32;17.50;99.90
18266;DHT22;9259;48.194;16.322;2023-05-07T07:22:00;17.90;99.90
18266;DHT22;9259;48.194;16.322;2023-05-07T07:24:27;17.70;99.90
18266;DHT22;9259;48.194;16.322;2023-05-07T07:26:56;17.70;99.90
18266;DHT22;9259;48.194;16.322;2023-05-07T07:29:23;17.80;99.90
18266;DHT22;9259;48.194;16.322;2023-05-07T07:31:52;17.90;99.90
18266;DHT22;9259;48.194;16.322;2023-05-07T07:34:20;18.30;99.90
18266;DHT22;9259;48.194;16.322;2023-05-07T07:36:47;18.70;99.90
18266;DHT22;9259;48.194;16.322;2023-05-07T07:39:14;18.30;99.90
18266;DHT22;9259;48.194;16.322;2023-05-07T07:41:42;18.10;99.90
18266;DHT22;9259;48.194;16.322;2023-05-07T07:44:11;17.70;99.90
18266;DHT22;9259;48.194;16.322;2023-05-07T07:46:39;17.40;99.90
18266;DHT22;9259;48.194;16.322;2023-05-07T07:49:06;17.00;99.90
18266;DHT22;9259;48.194;16.322;2023-05-07T07:51:33;17.10;99.90
18266;DHT22;9259;48.194;16.322;2023-05-07T07:54:01;17.30;99.90
18266;DHT22;9259;48.194;16.322;2023-05-07T07:56:29;17.90;99.90
18266;DHT22;9259;48.194;16.322;2023-05-07T07:58:56;18.60;99.90
18266;DHT22;9259;48.194;16.322;2023-05-07T08:01:26;18.80;99.90
18266;DHT22;9259;48.194;16.322;2023-05-07T08:03:53;18.40;99.90
18266;DHT22;9259;48.194;16.322;2023-05-07T08:06:21;18.50;99.90
18266;DHT22;9259;48.194;16.322;2023-05-07T08:08:48;19.30;99.90
18266;DHT22;9259;48.194;16.322;2023-05-07T08:11:16;19.50;99.90
18266;DHT22;9259;48.194;16.322;2023-05-07T08:13:43;19.30;99.90
18266;DHT22;9259;48.194;16.322;2023-05-07T08:16:11;18.50;99.90
18266;DHT22;9259;48.194;16.322;2023-05-07T08:18:40;18.50;99.90
18266;DHT22;9259;48.194;16.322;2023-05-07T08:21:07;18.50;99.90
18266;DHT22;9259;48.194;16.322;2023-05-07T08:23:35;18.60;99.90
18266;DHT22;9259;48.194;16.322;2023-05-07T08:26:02;18.30;99.90
18266;DHT22;9259;48.194;16.322;2023-05-07T08:28:30;18.50;99.90
18266;DHT22;9259;48.194;16.322;2023-05-07T08:30:57;18.40;99.90
18266;DHT22;9259;48.194;16.322;2023-05-07T08:33:31;18.50;99.90
18266;DHT22;9259;48.194;16.322;2023-05-07T08:36:00;18.30;99.90
18266;DHT22;9259;48.194;16.322;2023-05-07T08:38:27;18.40;99.90
18266;DHT22;9259;48.194;16.322;2023-05-07T08:40:55;18.40;99.90
18266;DHT22;9259;48.194;16.322;2023-05-07T08:43:26;18.40;99.90
18266;DHT22;9259;48.194;16.322;2023-05-07T08:45:54;18.30;99.90
18266;DHT22;9259;48.194;16.322;2023-05-07T08:48:25;18.30;99.90
18266;DHT22;9259;48.194;16.322;2023-05-07T08:50:53;18.20;99.90
18266;DHT22;9259;48.194;16.322;2023-05-07T08:53:22;18.00;99.90
18266;DHT22;9259;48.194;16.322;2023-05-07T08:55:49;18.10;99.90
18266;DHT22;9259;48.194;16.322;2023-05-07T08:58:17;18.60;99.90
18266;DHT22;9259;48.194;16.322;2023-05-07T09:00:44;19.00;99.90
18266;DHT22;9259;48.194;16.322;2023-05-07T09:03:13;20.00;99.90
18266;DHT22;9259;48.194;16.322;2023-05-07T09:05:40;20.20;99.90
18266;DHT22;9259;48.194;16.322;2023-05-07T09:08:09;19.90;99.90
18266;DHT22;9259;48.194;16.322;2023-05-07T09:10:38;20.00;99.90
18266;DHT22;9259;48.194;16.322;2023-05-07T09:13:06;20.70;99.90
18266;DHT22;9259;48.194;16.322;2023-05-07T09:15:33;20.90;99.90
18266;DHT22;9259;48.194;16.322;2023-05-07T09:18:01;21.20;99.90
18266;DHT22;9259;48.194;16.322;2023-05-07T09:20:30;20.70;99.90
18266;DHT22;9259;48.194;16.322;2023-05-07T09:22:58;20.10;99.90
18266;DHT22;9259;48.194;16.322;2023-05-07T09:25:29;19.50;99.90
18266;DHT22;9259;48.194;16.322;2023-05-07T09:27:59;19.40;99.90
18266;DHT22;9259;48.194;16.322;2023-05-07T09:30:28;19.70;99.90
18266;DHT22;9259;48.194;16.322;2023-05-07T09:32:57;20.00;99.90
18266;DHT22;9259;48.194;16.322;2023-05-07T09:35:25;20.50;99.90
18266;DHT22;9259;48.194;16.322;2023-05-07T09:37:53;21.20;99.90
18266;DHT22;9259;48.194;16.322;2023-05-07T09:40:21;21.40;99.90
18266;DHT22;9259;48.194;16.322;2023-05-07T09:42:49;21.50;99.90
18266;DHT22;9259;48.194;16.322;2023-05-07T09:45:23;21.00;99.90
18266;DHT22;9259;48.194;16.322;2023-05-07T09:47:55;20.20;99.90
18266;DHT22;9259;48.194;16.322;2023-05-07T09:50:26;20.40;99.90
18266;DHT22;9259;48.194;16.322;2023-05-07T09:52:54;21.20;99.90
18266;DHT22;9259;48.194;16.322;2023-05-07T09:55:22;22.10;99.90
18266;DHT22;9259;48.194;16.322;2023-05-07T09:57:51;21.90;99.90
18266;DHT22;9259;48.194;16.322;2023-05-07T10:00:19;21.90;99.90
18266;DHT22;9259;48.194;16.322;2023-05-07T10:02:51;22.10;99.90
18266;DHT22;9259;48.194;16.322;2023-05-07T10:05:19;23.00;99.90
18266;DHT22;9259;48.194;16.322;2023-05-07T10:07:47;23.80;99.90
18266;DHT22;9259;48.194;16.322;2023-05-07T10:10:15;24.20;99.90
18266;DHT22;9259;48.194;16.322;2023-05-07T10:12:43;23.90;99.90
18266;DHT22;9259;48.194;16.322;2023-05-07T10:15:12;23.30;99.90
18266;DHT22;9259;48.194;16.322;2023-05-07T10:17:40;23.00;99.90
18266;DHT22;9259;48.194;16.322;2023-05-07T10:20:10;22.90;99.90
18266;DHT22;9259;48.194;16.322;2023-05-07T10:22:38;22.80;99.90
18266;DHT22;9259;48.194;16.322;2023-05-07T10:25:14;23.80;99.90
18266;DHT22;9259;48.194;16.322;2023-05-07T10:27:44;23.40;99.90
18266;DHT22;9259;48.194;16.322;2023-05-07T10:30:19;23.20;99.90
18266;DHT22;9259;48.194;16.322;2023-05-07T10:32:53;23.50;99.90
18266;DHT22;9259;48.194;16.322;2023-05-07T10:35:25;23.00;99.90
18266;DHT22;9259;48.194;16.322;2023-05-07T10:37:53;23.30;99.90
18266;DHT22;9259;48.194;16.322;2023-05-07T10:40:21;23.00;99.90
18266;DHT22;9259;48.194;16.322;2023-05-07T10:42:55;22.90;99.90
18266;DHT22;9259;48.194;16.322;2023-05-07T10:45:24;22.20;99.90
18266;DHT22;9259;48.194;16.322;2023-05-07T10:48:10;22.40;99.90
18266;DHT22;9259;48.194;16.322;2023-05-07T10:50:40;22.70;99.90
18266;DHT22;9259;48.194;16.322;2023-05-07T10:53:23;23.00;99.90
18266;DHT22;9259;48.194;16.322;2023-05-07T10:56:26;23.40;99.90
18266;DHT22;9259;48.194;16.322;2023-05-07T10:59:35;24.20;99.90
18266;DHT22;9259;48.194;16.322;2023-05-07T11:02:07;25.20;99.90
18266;DHT22;9259;48.194;16.322;2023-05-07T11:04:37;24.80;99.50
18266;DHT22;9259;48.194;16.322;2023-05-07T11:07:33;24.80;99.50
18266;DHT22;9259;48.194;16.322;2023-05-07T11:10:05;23.40;99.90
18266;DHT22;9259;48.194;16.322;2023-05-07T11:12:55;23.40;99.90
18266;DHT22;9259;48.194;16.322;2023-05-07T11:15:39;23.90;99.90
18266;DHT22;9259;48.194;16.322;2023-05-07T11:18:09;23.10;99.90
18266;DHT22;9259;48.194;16.322;2023-05-07T11:20:48;23.30;99.90
18266;DHT22;9259;48.194;16.322;2023-05-07T11:23:58;24.30;99.90
18266;DHT22;9259;48.194;16.322;2023-05-07T11:26:28;24.50;99.90
18266;DHT22;9259;48.194;16.322;2023-05-07T11:28:56;24.30;98.80
18266;DHT22;9259;48.194;16.322;2023-05-07T11:31:27;24.90;99.70
18266;DHT22;9259;48.194;16.322;2023-05-07T11:33:56;24.50;98.00
18266;DHT22;9259;48.194;16.322;2023-05-07T11:36:24;24.20;99.40
18266;DHT22;9259;48.194;16.322;2023-05-07T11:38:52;24.50;98.50
18266;DHT22;9259;48.194;16.322;2023-05-07T11:41:20;24.40;97.90
18266;DHT22;9259;48.194;16.322;2023-05-07T11:43:59;24.00;98.20
18266;DHT22;9259;48.194;16.322;2023-05-07T11:46:27;24.10;98.30
18266;DHT22;9259;48.194;16.322;2023-05-07T11:48:55;23.80;99.10
18266;DHT22;9259;48.194;16.322;2023-05-07T11:51:24;23.10;99.20
18266;DHT22;9259;48.194;16.322;2023-05-07T11:53:53;22.20;99.90
18266;DHT22;9259;48.194;16.322;2023-05-07T11:56:22;22.30;99.90
18266;DHT22;9259;48.194;16.322;2023-05-07T11:58:50;23.20;99.90
18266;DHT22;9259;48.194;16.322;2023-05-07T12:01:18;24.00;98.80
18266;DHT22;9259;48.194;16.322;2023-05-07T12:03:46;24.00;98.10
18266;DHT22;9259;48.194;16.322;2023-05-07T12:06:15;23.60;98.80
18266;DHT22;9259;48.194;16.322;2023-05-07T12:08:44;22.90;99.50
18266;DHT22;9259;48.194;16.322;2023-05-07T12:11:14;22.50;99.20
18266;DHT22;9259;48.194;16.322;2023-05-07T12:13:44;22.10;99.90
18266;DHT22;9259;48.194;16.322;2023-05-07T12:16:12;22.40;99.90
18266;DHT22;9259;48.194;16.322;2023-05-07T12:18:40;22.80;99.60
18266;DHT22;9259;48.194;16.322;2023-05-07T12:21:08;22.80;99.90
18266;DHT22;9259;48.194;16.322;2023-05-07T12:23:36;22.40;99.40
18266;DHT22;9259;48.194;16.322;2023-05-07T12:26:04;22.60;99.90
18266;DHT22;9259;48.194;16.322;2023-05-07T12:28:36;22.10;99.90
18266;DHT22;9259;48.194;16.322;2023-05-07T12:31:06;22.10;99.90
18266;DHT22;9259;48.194;16.322;2023-05-07T12:33:34;21.90;99.90
18266;DHT22;9259;48.194;16.322;2023-05-07T12:36:06;22.30;99.90
18266;DHT22;9259;48.194;16.322;2023-05-07T12:38:36;22.30;99.90
18266;DHT22;9259;48.194;16.322;2023-05-07T12:41:05;23.00;99.60
18266;DHT22;9259;48.194;16.322;2023-05-07T12:43:33;23.80;99.40
18266;DHT22;9259;48.194;16.322;2023-05-07T12:46:01;23.80;98.30
18266;DHT22;9259;48.194;16.322;2023-05-07T12:48:32;24.00;98.80
18266;DHT22;9259;48.194;16.322;2023-05-07T12:51:00;24.60;98.10
18266;DHT22;9259;48.194;16.322;2023-05-07T12:53:29;24.70;97.20
18266;DHT22;9259;48.194;16.322;2023-05-07T12:55:58;25.10;97.10
18266;DHT22;9259;48.194;16.322;2023-05-07T12:58:27;24.70;97.00
18266;DHT22;9259;48.194;16.322;2023-05-07T13:00:56;23.40;98.50
18266;DHT22;9259;48.194;16.322;2023-05-07T13:03:26;23.10;99.10
18266;DHT22;9259;48.194;16.322;2023-05-07T13:05:58;22.60;99.90
18266;DHT22;9259;48.194;16.322;2023-05-07T13:08:27;22.40;99.60
18266;DHT22;9259;48.194;16.322;2023-05-07T13:10:56;22.80;98.40
18266;DHT22;9259;48.194;16.322;2023-05-07T13:13:23;23.80;97.60
18266;DHT22;9259;48.194;16.322;2023-05-07T13:15:51;25.00;96.10
18266;DHT22;9259;48.194;16.322;2023-05-07T13:18:18;24.60;95.40
18266;DHT22;9259;48.194;16.322;2023-05-07T13:20:46;24.30;95.70
18266;DHT22;9259;48.194;16.322;2023-05-07T13:23:14;24.20;96.30
18266;DHT22;9259;48.194;16.322;2023-05-07T13:25:42;24.00;96.20
18266;DHT22;9259;48.194;16.322;2023-05-07T13:28:09;23.60;96.50
18266;DHT22;9259;48.194;16.322;2023-05-07T13:30:37;23.60;95.90
18266;DHT22;9259;48.194;16.322;2023-05-07T13:33:04;23.20;96.60
18266;DHT22;9259;48.194;16.322;2023-05-07T13:35:32;23.60;96.20
18266;DHT22;9259;48.194;16.322;2023-05-07T13:37:59;23.50;95.50
18266;DHT22;9259;48.194;16.322;2023-05-07T13:40:28;22.80;96.20
18266;DHT22;9259;48.194;16.322;2023-05-07T13:42:57;22.50;97.20
18266;DHT22;9259;48.194;16.322;2023-05-07T13:45:26;23.40;96.00
18266;DHT22;9259;48.194;16.322;2023-05-07T13:47:56;23.60;96.00
18266;DHT22;9259;48.194;16.322;2023-05-07T13:50:23;24.50;95.10
18266;DHT22;9259;48.194;16.322;2023-05-07T13:52:52;24.10;94.90
18266;DHT22;9259;48.194;16.322;2023-05-07T13:55:21;22.90;96.30
18266;DHT22;9259;48.194;16.322;2023-05-07T13:57:56;23.20;96.40
18266;DHT22;9259;48.194;16.322;2023-05-07T14:00:24;24.10;95.40
18266;DHT22;9259;48.194;16.322;2023-05-07T14:02:51;24.40;94.00
18266;DHT22;9259;48.194;16.322;2023-05-07T14:05:19;23.90;93.60
18266;DHT22;9259;48.194;16.322;2023-05-07T14:07:46;23.70;94.60
18266;DHT22;9259;48.194;16.322;2023-05-07T14:10:15;24.00;94.10
18266;DHT22;9259;48.194;16.322;2023-05-07T14:12:44;24.80;93.40
18266;DHT22;9259;48.194;16.322;2023-05-07T14:15:13;24.50;92.70
18266;DHT22;9259;48.194;16.322;2023-05-07T14:17:41;23.60;93.90
18266;DHT22;9259;48.194;16.322;2023-05-07T14:20:09;23.20;94.50
18266;DHT22;9259;48.194;16.322;2023-05-07T14:22:37;22.70;94.90
18266;DHT22;9259;48.194;16.322;2023-05-07T14:25:05;22.00;95.60
18266;DHT22;9259;48.194;16.322;2023-05-07T14:27:33;21.60;96.30
18266;DHT22;9259;48.194;16.322;2023-05-07T14:30:00;21.10;97.00
18266;DHT22;9259;48.194;16.322;2023-05-07T14:32:29;20.80;97.30
18266;DHT22;9259;48.194;16.322;2023-05-07T14:34:57;20.70;97.60
18266;DHT22;9259;48.194;16.322;2023-05-07T14:37:24;20.70;97.70
18266;DHT22;9259;48.194;16.322;2023-05-07T14:39:51;20.80;97.50
18266;DHT22;9259;48.194;16.322;2023-05-07T14:42:19;20.70;97.60
18266;DHT22;9259;48.194;16.322;2023-05-07T14:44:46;20.50;98.00
18266;DHT22;9259;48.194;16.322;2023-05-07T14:47:14;20.30;99.00
18266;DHT22;9259;48.194;16.322;2023-05-07T14:49:43;20.10;99.70
18266;DHT22;9259;48.194;16.322;2023-05-07T14:52:10;20.00;99.90
18266;DHT22;9259;48.194;16.322;2023-05-07T14:54:38;19.80;99.90
18266;DHT22;9259;48.194;16.322;2023-05-07T14:57:06;19.70;99.90
18266;DHT22;9259;48.194;16.322;2023-05-07T14:59:34;19.70;99.90
18266;DHT22;9259;48.194;16.322;2023-05-07T15:02:01;19.70;99.90
18266;DHT22;9259;48.194;16.322;2023-05-07T15:04:29;19.70;99.90
18266;DHT22;9259;48.194;16.322;2023-05-07T15:06:58;19.60;99.90
18266;DHT22;9259;48.194;16.322;2023-05-07T15:09:26;19.70;99.90
18266;DHT22;9259;48.194;16.322;2023-05-07T15:11:53;19.80;99.90
18266;DHT22;9259;48.194;16.322;2023-05-07T15:14:21;19.80;99.90
18266;DHT22;9259;48.194;16.322;2023-05-07T15:16:48;19.80;99.90
18266;DHT22;9259;48.194;16.322;2023-05-07T15:19:16;19.50;99.90
18266;DHT22;9259;48.194;16.322;2023-05-07T15:21:43;19.50;99.90
18266;DHT22;9259;48.194;16.322;2023-05-07T15:24:12;19.50;99.90
18266;DHT22;9259;48.194;16.322;2023-05-07T15:26:40;19.30;99.90
18266;DHT22;9259;48.194;16.322;2023-05-07T15:29:07;19.10;99.90
18266;DHT22;9259;48.194;16.322;2023-05-07T15:31:36;19.00;99.90
18266;DHT22;9259;48.194;16.322;2023-05-07T15:34:04;18.70;99.90
18266;DHT22;9259;48.194;16.322;2023-05-07T15:36:32;19.00;99.90
18266;DHT22;9259;48.194;16.322;2023-05-07T15:38:59;19.20;99.90